createdAt,value
2016-01-11T00:00:11.278Z,3.2
2016-01-11T00:01:11.234Z,3.2
2016-01-11T00:02:11.174Z,3.3
2016-01-11T00:03:11.113Z,3.3
2016-01-11T00:04:11.054Z,3.3
2016-01-11T00:05:11.010Z,3.4
2016-01-11T00:06:10.950Z,3.4
2016-01-11T00:07:10.889Z,3.4
2016-01-11T00:08:10.830Z,3.4
2016-01-11T00:09:10.770Z,3.4
2016-01-11T00:10:10.726Z,3.4
2016-01-11T00:11:10.667Z,3.4
2016-01-11T00:12:10.607Z,3.4
2016-01-11T00:13:10.547Z,3.4
2016-01-11T00:14:10.502Z,3.4
2016-01-11T00:15:10.443Z,3.4
2016-01-11T00:16:10.383Z,3.4
2016-01-11T00:17:10.324Z,3.4
2016-01-11T00:18:10.263Z,3.4
2016-01-11T00:19:10.219Z,3.5
2016-01-11T00:20:10.160Z,3.4
2016-01-11T00:21:10.099Z,3.4
2016-01-11T00:22:10.040Z,3.4
2016-01-11T00:23:09.996Z,3.5
2016-01-11T00:24:09.936Z,3.5
2016-01-11T00:25:09.877Z,3.5
2016-01-11T00:26:09.816Z,3.6
2016-01-11T00:27:09.803Z,3.6
2016-01-11T00:28:09.696Z,3.5
2016-01-11T00:29:09.653Z,3.6
2016-01-11T00:30:09.593Z,3.6
2016-01-11T00:31:09.534Z,3.6
2016-01-11T00:32:09.489Z,3.6
2016-01-11T00:33:09.429Z,3.7
2016-01-11T00:34:09.370Z,3.7
2016-01-11T00:35:09.309Z,3.7
2016-01-11T00:36:09.250Z,3.7
2016-01-11T00:37:09.206Z,3.7
2016-01-11T00:38:09.162Z,3.8
2016-01-11T00:39:09.102Z,3.8
2016-01-11T00:40:09.026Z,3.8
2016-01-11T00:41:08.982Z,3.8
2016-01-11T00:42:08.923Z,3.8
2016-01-11T00:43:08.862Z,3.8
2016-01-11T00:44:08.819Z,3.8
2016-01-11T00:45:08.758Z,3.8
2016-01-11T00:46:08.700Z,3.8
2016-01-11T00:47:08.639Z,3.8
2016-01-11T00:48:08.580Z,3.8
2016-01-11T00:49:08.520Z,3.7
2016-01-11T00:50:08.475Z,3.6
2016-01-11T00:51:08.416Z,3.6
2016-01-11T00:52:08.355Z,3.5
2016-01-11T00:53:08.296Z,3.5
2016-01-11T00:54:08.236Z,3.4
2016-01-11T00:55:08.177Z,3.4
2016-01-11T00:56:08.132Z,3.5
2016-01-11T00:57:08.072Z,3.5
2016-01-11T00:58:08.013Z,3.6
2016-01-11T00:59:07.953Z,3.7
2016-01-11T01:00:07.908Z,3.7
2016-01-11T01:01:07.849Z,3.7
2016-01-11T01:02:07.789Z,3.7
2016-01-11T01:03:07.730Z,3.6
2016-01-11T01:04:07.685Z,3.6
2016-01-11T01:05:07.625Z,3.6
2016-01-11T01:06:07.562Z,3.5
2016-01-11T01:07:07.519Z,3.6
2016-01-11T01:08:07.459Z,3.6
2016-01-11T01:09:07.399Z,3.6
2016-01-11T01:10:07.340Z,3.5
2016-01-11T01:11:07.279Z,3.6
2016-01-11T01:12:07.235Z,3.6
2016-01-11T01:13:07.175Z,3.7
2016-01-11T01:14:07.115Z,3.6
2016-01-11T01:15:07.071Z,3.6
2016-01-11T01:16:07.012Z,3.7
2016-01-11T01:17:06.952Z,3.7
2016-01-11T01:18:06.908Z,3.6
2016-01-11T01:19:06.848Z,3.7
2016-01-11T01:20:06.789Z,3.7
2016-01-11T01:21:06.728Z,3.7
2016-01-11T01:22:07.173Z,3.7
2016-01-11T01:23:06.614Z,3.8
2016-01-11T01:24:06.554Z,3.7
2016-01-11T01:25:06.510Z,3.7
2016-01-11T01:26:06.450Z,3.8
2016-01-11T01:27:06.391Z,3.7
2016-01-11T01:28:06.346Z,3.7
2016-01-11T01:29:06.286Z,3.6
2016-01-11T01:30:06.226Z,3.6
2016-01-11T01:31:06.166Z,3.6
2016-01-11T01:32:06.122Z,3.6
2016-01-11T01:33:06.063Z,3.5
2016-01-11T01:34:06.018Z,3.6
2016-01-11T01:35:05.959Z,3.6
2016-01-11T01:36:05.899Z,3.6
2016-01-11T01:37:05.839Z,3.6
2016-01-11T01:38:05.780Z,3.6
2016-01-11T01:39:05.735Z,3.7
2016-01-11T01:40:05.676Z,3.6
2016-01-11T01:41:05.616Z,3.7
2016-01-11T01:42:05.556Z,3.7
2016-01-11T01:43:05.512Z,3.8
2016-01-11T01:44:05.468Z,3.7
2016-01-11T01:45:05.392Z,3.7
2016-01-11T01:46:05.348Z,3.7
2016-01-11T01:47:05.288Z,3.7
2016-01-11T01:48:05.228Z,3.7
2016-01-11T01:49:05.168Z,3.7
2016-01-11T01:50:05.124Z,3.8
2016-01-11T01:51:05.064Z,3.7
2016-01-11T01:52:05.004Z,3.7
2016-01-11T01:53:04.945Z,3.7
2016-01-11T01:54:04.884Z,3.7
2016-01-11T01:55:04.841Z,3.6
2016-01-11T01:56:04.781Z,3.6
2016-01-11T01:57:04.722Z,3.6
2016-01-11T01:58:04.677Z,3.6
2016-01-11T01:59:04.617Z,3.6
2016-01-11T02:00:04.558Z,3.5
2016-01-11T02:01:04.513Z,3.5
2016-01-11T02:02:04.453Z,3.5
2016-01-11T02:03:04.394Z,3.5
2016-01-11T02:04:04.334Z,3.4
2016-01-11T02:05:04.274Z,3.4
2016-01-11T02:06:04.230Z,3.4
2016-01-11T02:07:04.170Z,3.5
2016-01-11T02:08:04.111Z,3.4
2016-01-11T02:09:04.050Z,3.4
2016-01-11T02:10:03.991Z,3.4
2016-01-11T02:11:03.947Z,3.4
2016-01-11T02:12:03.887Z,3.3
2016-01-11T02:13:03.827Z,3.3
2016-01-11T02:14:03.768Z,3.2
2016-01-11T02:15:03.707Z,3.1
2016-01-11T02:16:03.648Z,3.1
2016-01-11T02:17:03.604Z,3.1
2016-01-11T02:18:03.544Z,3.1
2016-01-11T02:19:03.499Z,3
2016-01-11T02:20:03.424Z,3.1
2016-01-11T02:21:03.380Z,3.2
2016-01-11T02:22:03.321Z,3.2
2016-01-11T02:23:03.260Z,3.2
2016-01-11T02:24:03.200Z,3.2
2016-01-11T02:25:03.140Z,3.2
2016-01-11T02:26:03.096Z,3.2
2016-01-11T02:27:03.037Z,3.2
2016-01-11T02:28:02.977Z,3.1
2016-01-11T02:29:02.917Z,3.1
2016-01-11T02:30:02.857Z,3.1
2016-01-11T02:31:02.814Z,3.1
2016-01-11T02:32:02.753Z,3.1
2016-01-11T02:33:02.694Z,3.1
2016-01-11T02:34:02.634Z,3
2016-01-11T02:35:02.589Z,3
2016-01-11T02:36:02.530Z,3
2016-01-11T02:37:02.470Z,3
2016-01-11T02:38:02.411Z,2.9
2016-01-11T02:39:02.366Z,2.9
2016-01-11T02:40:02.306Z,2.8
2016-01-11T02:41:02.247Z,2.6
2016-01-11T02:42:02.187Z,2.5
2016-01-11T02:43:02.143Z,2.6
2016-01-11T02:44:02.083Z,2.5
2016-01-11T02:45:02.023Z,2.5
2016-01-11T02:46:01.963Z,2.5
2016-01-11T02:47:01.903Z,2.4
2016-01-11T02:48:01.844Z,2.3
2016-01-11T02:49:01.800Z,2.4
2016-01-11T02:50:01.740Z,2.5
2016-01-11T02:51:01.680Z,2.3
2016-01-11T02:52:01.621Z,2.3
2016-01-11T02:53:01.561Z,2.4
2016-01-11T02:54:01.501Z,2.4
2016-01-11T02:55:01.441Z,2.3
2016-01-11T02:56:01.397Z,2.3
2016-01-11T02:57:01.337Z,2.3
2016-01-11T02:58:01.277Z,2.3
2016-01-11T02:59:01.218Z,2.3
2016-01-11T03:00:01.157Z,2.2
2016-01-11T03:01:01.098Z,2.2
2016-01-11T03:02:01.053Z,2.2
2016-01-11T03:03:00.993Z,2.1
2016-01-11T03:04:00.934Z,2.1
2016-01-11T03:05:00.871Z,2
2016-01-11T03:06:00.812Z,2
2016-01-11T03:07:00.768Z,2
2016-01-11T03:08:00.707Z,1.9
2016-01-11T03:09:00.648Z,2
2016-01-11T03:10:00.588Z,2.1
2016-01-11T03:11:00.545Z,2.1
2016-01-11T03:12:00.484Z,2.1
2016-01-11T03:13:00.425Z,2.1
2016-01-11T03:14:00.364Z,2
2016-01-11T03:15:00.305Z,2.1
2016-01-11T03:16:00.245Z,2.1
2016-01-11T03:17:00.185Z,2.1
2016-01-11T03:18:00.141Z,1.9
2016-01-11T03:19:00.097Z,1.9
2016-01-11T03:20:00.022Z,1.9
2016-01-11T03:20:59.962Z,1.9
2016-01-11T03:21:59.902Z,1.9
2016-01-11T03:22:59.858Z,2
2016-01-11T03:23:59.797Z,1.8
2016-01-11T03:24:59.738Z,1.7
2016-01-11T03:25:59.679Z,1.7
2016-01-11T03:26:59.619Z,1.8
2016-01-11T03:27:59.558Z,1.9
2016-01-11T03:28:59.515Z,1.8
2016-01-11T03:29:59.456Z,1.8
2016-01-11T03:30:59.395Z,1.8
2016-01-11T03:31:59.335Z,1.8
2016-01-11T03:32:59.276Z,1.9
2016-01-11T03:33:59.232Z,1.9
2016-01-11T03:34:59.172Z,2
2016-01-11T03:35:59.112Z,1.9
2016-01-11T03:36:59.052Z,1.9
2016-01-11T03:37:58.993Z,1.8
2016-01-11T03:38:58.933Z,1.7
2016-01-11T03:39:58.888Z,1.8
2016-01-11T03:40:58.829Z,1.8
2016-01-11T03:41:58.768Z,1.7
2016-01-11T03:42:58.709Z,1.7
2016-01-11T03:43:58.649Z,1.7
2016-01-11T03:44:58.590Z,1.8
2016-01-11T03:45:58.529Z,1.7
2016-01-11T03:46:58.474Z,1.7
2016-01-11T03:47:58.400Z,1.7
2016-01-11T03:48:58.326Z,1.7
2016-01-11T03:49:58.252Z,1.7
2016-01-11T03:50:58.177Z,1.7
2016-01-11T03:51:58.111Z,1.6
2016-01-11T03:52:58.063Z,1.6
2016-01-11T03:53:57.997Z,1.7
2016-01-11T03:54:57.932Z,1.8
2016-01-11T03:55:57.867Z,1.7
2016-01-11T03:56:57.821Z,1.7
2016-01-11T03:57:57.744Z,1.7
2016-01-11T03:58:57.699Z,1.6
2016-01-11T03:59:57.636Z,1.7
2016-01-11T04:00:57.575Z,1.7
2016-01-11T04:01:57.514Z,1.6
2016-01-11T04:02:57.453Z,1.6
2016-01-11T04:03:57.392Z,1.5
2016-01-11T04:04:57.348Z,1.5
2016-01-11T04:05:57.287Z,1.5
2016-01-11T04:06:57.226Z,1.5
2016-01-11T04:07:57.167Z,1.5
2016-01-11T04:08:57.106Z,1.5
2016-01-11T04:09:57.047Z,1.4
2016-01-11T04:10:57.002Z,1.5
2016-01-11T04:11:56.942Z,1.5
2016-01-11T04:12:56.882Z,1.5
2016-01-11T04:13:56.821Z,1.5
2016-01-11T04:14:56.762Z,1.4
2016-01-11T04:15:56.702Z,1.3
2016-01-11T04:16:56.658Z,1.2
2016-01-11T04:17:56.598Z,1.1
2016-01-11T04:18:56.539Z,1.1
2016-01-11T04:19:56.479Z,1.2
2016-01-11T04:20:56.419Z,1.3
2016-01-11T04:21:56.359Z,1.3
2016-01-11T04:22:56.299Z,1.2
2016-01-11T04:23:56.256Z,1.2
2016-01-11T04:24:56.195Z,1.3
2016-01-11T04:25:56.136Z,1.3
2016-01-11T04:26:56.076Z,1.4
2016-01-11T04:27:56.016Z,1.4
2016-01-11T04:28:55.956Z,1.3
2016-01-11T04:29:55.912Z,1.3
2016-01-11T04:30:55.853Z,1.3
2016-01-11T04:31:55.793Z,1.3
2016-01-11T04:32:55.734Z,1.4
2016-01-11T04:33:55.673Z,1.3
2016-01-11T04:34:55.629Z,1.3
2016-01-11T04:35:55.553Z,1.3
2016-01-11T04:36:55.494Z,1.2
2016-01-11T04:37:55.434Z,1.3
2016-01-11T04:38:55.389Z,1.3
2016-01-11T04:39:55.331Z,1.3
2016-01-11T04:40:55.270Z,1.2
2016-01-11T04:41:55.211Z,1.1
2016-01-11T04:42:55.151Z,1.1
2016-01-11T04:43:55.092Z,1.2
2016-01-11T04:44:55.063Z,1.3
2016-01-11T04:45:54.986Z,1.2
2016-01-11T04:46:54.927Z,1
2016-01-11T04:47:54.867Z,1.1
2016-01-11T04:48:54.808Z,1.2
2016-01-11T04:49:54.748Z,1.2
2016-01-11T04:50:54.704Z,1.3
2016-01-11T04:51:54.644Z,1.3
2016-01-11T04:52:54.585Z,1.3
2016-01-11T04:53:54.524Z,1.2
2016-01-11T04:54:54.462Z,1.1
2016-01-11T04:55:54.402Z,1.1
2016-01-11T04:56:54.342Z,1.2
2016-01-11T04:57:54.283Z,1.3
2016-01-11T04:58:54.238Z,1.3
2016-01-11T04:59:54.179Z,1.3
2016-01-11T05:00:54.119Z,1.2
2016-01-11T05:01:54.059Z,1.2
2016-01-11T05:02:54.002Z,1.2
2016-01-11T05:03:53.942Z,1.1
2016-01-11T05:04:53.883Z,1.2
2016-01-11T05:05:53.823Z,1.2
2016-01-11T05:06:53.763Z,1.2
2016-01-11T05:07:53.719Z,1.2
2016-01-11T05:08:53.660Z,1.1
2016-01-11T05:09:53.599Z,1.1
2016-01-11T05:10:53.540Z,1.1
2016-01-11T05:11:53.479Z,1.2
2016-01-11T05:12:53.420Z,1.2
2016-01-11T05:13:53.360Z,1.2
2016-01-11T05:14:53.315Z,1.3
2016-01-11T05:15:53.241Z,1.3
2016-01-11T05:16:53.196Z,1.3
2016-01-11T05:17:53.137Z,1.3
2016-01-11T05:18:53.077Z,1.3
2016-01-11T05:19:53.017Z,1.3
2016-01-11T05:20:52.957Z,1.3
2016-01-11T05:21:52.898Z,1.2
2016-01-11T05:22:52.853Z,1.2
2016-01-11T05:23:52.793Z,1.2
2016-01-11T05:24:52.734Z,1.2
2016-01-11T05:25:52.673Z,1.3
2016-01-11T05:26:52.614Z,1.2
2016-01-11T05:27:52.554Z,0.9
2016-01-11T05:28:52.510Z,0.8
2016-01-11T05:29:52.450Z,0.9
2016-01-11T05:30:52.391Z,0.8
2016-01-11T05:31:52.331Z,0.9
2016-01-11T05:32:52.271Z,1
2016-01-11T05:33:52.211Z,1.1
2016-01-11T05:34:52.152Z,1
2016-01-11T05:35:52.092Z,1
2016-01-11T05:36:52.078Z,0.9
2016-01-11T05:37:51.988Z,0.9
2016-01-11T05:38:51.928Z,1
2016-01-11T05:39:51.868Z,1
2016-01-11T05:40:51.808Z,1
2016-01-11T05:41:51.749Z,1
2016-01-11T05:42:51.689Z,0.9
2016-01-11T05:43:51.630Z,0.9
2016-01-11T05:44:51.585Z,1
2016-01-11T05:45:51.525Z,1
2016-01-11T05:46:51.465Z,1
2016-01-11T05:47:51.405Z,1.1
2016-01-11T05:48:51.346Z,1
2016-01-11T05:49:51.286Z,1.1
2016-01-11T05:50:51.241Z,1.1
2016-01-11T05:51:51.182Z,1.1
2016-01-11T05:52:51.153Z,1.1
2016-01-11T05:53:51.063Z,1.1
2016-01-11T05:54:51.002Z,1
2016-01-11T05:55:50.943Z,1
2016-01-11T05:56:50.898Z,1
2016-01-11T05:57:50.839Z,1.1
2016-01-11T05:58:50.779Z,1.2
2016-01-11T05:59:50.719Z,1.2
2016-01-11T06:00:50.659Z,1.2
2016-01-11T06:01:50.600Z,1.3
2016-01-11T06:02:50.540Z,1.3
2016-01-11T06:03:50.480Z,1.2
2016-01-11T06:04:50.420Z,1.2
2016-01-11T06:05:50.375Z,1.2
2016-01-11T06:06:50.331Z,1.1
2016-01-11T06:07:50.256Z,1.1
2016-01-11T06:08:50.197Z,1.1
2016-01-11T06:09:50.136Z,1.2
2016-01-11T06:10:50.077Z,1.1
2016-01-11T06:11:50.033Z,1.2
2016-01-11T06:12:49.973Z,1.4
2016-01-11T06:13:49.914Z,1.4
2016-01-11T06:14:49.853Z,1.3
2016-01-11T06:15:49.794Z,1.2
2016-01-11T06:16:49.733Z,1.2
2016-01-11T06:17:49.689Z,1.2
2016-01-11T06:18:49.630Z,1.2
2016-01-11T06:19:49.569Z,1.2
2016-01-11T06:20:49.511Z,1.2
2016-01-11T06:21:49.466Z,1.2
2016-01-11T06:22:49.391Z,1.2
2016-01-11T06:23:49.347Z,1.2
2016-01-11T06:24:49.287Z,1.3
2016-01-11T06:25:49.227Z,1.4
2016-01-11T06:26:49.168Z,1.4
2016-01-11T06:27:49.108Z,1.5
2016-01-11T06:28:49.048Z,1.5
2016-01-11T06:29:48.987Z,1.4
2016-01-11T06:30:48.928Z,1.5
2016-01-11T06:31:48.868Z,1.6
2016-01-11T06:32:48.824Z,1.7
2016-01-11T06:33:48.764Z,1.6
2016-01-11T06:34:48.720Z,1.6
2016-01-11T06:35:48.642Z,1.7
2016-01-11T06:36:48.581Z,1.7
2016-01-11T06:37:48.588Z,1.7
2016-01-11T06:38:48.638Z,1.8
2016-01-11T06:39:48.438Z,1.7
2016-01-11T06:40:48.394Z,1.8
2016-01-11T06:41:48.303Z,1.8
2016-01-11T06:42:48.243Z,1.8
2016-01-11T06:43:48.182Z,1.8
2016-01-11T06:44:48.138Z,1.6
2016-01-11T06:45:48.079Z,1.6
2016-01-11T06:46:48.016Z,1.7
2016-01-11T06:47:47.956Z,1.7
2016-01-11T06:48:47.896Z,1.7
2016-01-11T06:49:47.838Z,1.7
2016-01-11T06:50:47.793Z,1.9
2016-01-11T06:51:47.734Z,1.9
2016-01-11T06:52:47.673Z,1.8
2016-01-11T06:53:47.614Z,1.8
2016-01-11T06:54:47.554Z,1.8
2016-01-11T06:55:47.494Z,1.9
2016-01-11T06:56:47.450Z,1.9
2016-01-11T06:57:47.390Z,1.9
2016-01-11T06:58:47.331Z,1.9
2016-01-11T06:59:47.270Z,1.8
2016-01-11T07:00:47.211Z,1.9
2016-01-11T07:01:47.150Z,1.9
2016-01-11T07:02:47.107Z,1.9
2016-01-11T07:03:47.048Z,1.9
2016-01-11T07:04:46.986Z,1.9
2016-01-11T07:05:46.928Z,1.9
2016-01-11T07:06:46.867Z,1.9
2016-01-11T07:07:46.823Z,2
2016-01-11T07:08:46.764Z,2
2016-01-11T07:09:46.704Z,2
2016-01-11T07:10:46.644Z,2
2016-01-11T07:11:46.584Z,1.9
2016-01-11T07:12:46.540Z,1.9
2016-01-11T07:13:46.480Z,1.9
2016-01-11T07:14:46.421Z,1.8
2016-01-11T07:15:46.361Z,1.8
2016-01-11T07:16:46.302Z,1.8
2016-01-11T07:17:46.257Z,1.8
2016-01-11T07:18:46.197Z,1.8
2016-01-11T07:19:46.138Z,1.9
2016-01-11T07:20:46.077Z,1.9
2016-01-11T07:21:46.018Z,1.9
2016-01-11T07:22:45.958Z,1.8
2016-01-11T07:23:45.899Z,1.7
2016-01-11T07:24:45.854Z,1.8
2016-01-11T07:25:45.794Z,1.8
2016-01-11T07:26:45.734Z,1.9
2016-01-11T07:27:45.674Z,2
2016-01-11T07:28:45.615Z,2
2016-01-11T07:29:45.554Z,1.9
2016-01-11T07:30:45.511Z,1.9
2016-01-11T07:31:45.451Z,2
2016-01-11T07:32:45.391Z,1.9
2016-01-11T07:33:45.332Z,1.9
2016-01-11T07:34:45.271Z,1.8
2016-01-11T07:35:45.212Z,1.8
2016-01-11T07:36:45.167Z,1.8
2016-01-11T07:37:45.108Z,1.8
2016-01-11T07:38:45.048Z,1.8
2016-01-11T07:39:44.988Z,1.8
2016-01-11T07:40:44.929Z,1.9
2016-01-11T07:41:44.869Z,1.9
2016-01-11T07:42:44.825Z,2
2016-01-11T07:43:44.764Z,2
2016-01-11T07:44:44.705Z,2
2016-01-11T07:45:44.645Z,2
2016-01-11T07:46:44.586Z,2
2016-01-11T07:47:44.541Z,2
2016-01-11T07:48:44.481Z,2
2016-01-11T07:49:44.421Z,1.9
2016-01-11T07:50:44.377Z,1.9
2016-01-11T07:51:44.302Z,1.9
2016-01-11T07:52:44.258Z,1.9
2016-01-11T07:53:44.198Z,1.8
2016-01-11T07:54:44.138Z,1.8
2016-01-11T07:55:44.077Z,1.8
2016-01-11T07:56:44.018Z,1.8
2016-01-11T07:57:43.958Z,1.9
2016-01-11T07:58:43.899Z,1.8
2016-01-11T07:59:43.854Z,1.7
2016-01-11T08:00:43.795Z,1.7
2016-01-11T08:01:43.735Z,1.7
2016-01-11T08:02:43.676Z,1.7
2016-01-11T08:03:43.615Z,1.7
2016-01-11T08:04:43.556Z,1.8
2016-01-11T08:05:43.512Z,1.7
2016-01-11T08:06:43.452Z,1.7
2016-01-11T08:07:43.392Z,1.7
2016-01-11T08:08:43.348Z,1.7
2016-01-11T08:09:43.272Z,1.7
2016-01-11T08:10:43.228Z,1.7
2016-01-11T08:11:43.168Z,1.6
2016-01-11T08:12:43.109Z,1.6
2016-01-11T08:13:43.048Z,1.6
2016-01-11T08:14:42.989Z,1.6
2016-01-11T08:15:42.929Z,1.6
2016-01-11T08:16:42.869Z,1.6
2016-01-11T08:17:42.825Z,1.5
2016-01-11T08:18:42.765Z,1.5
2016-01-11T08:19:42.705Z,1.6
2016-01-11T08:20:42.645Z,1.6
2016-01-11T08:21:42.632Z,1.7
2016-01-11T08:22:42.542Z,1.8
2016-01-11T08:23:42.483Z,1.8
2016-01-11T08:24:42.422Z,1.7
2016-01-11T08:25:42.363Z,1.7
2016-01-11T08:26:42.302Z,1.8
2016-01-11T08:27:42.258Z,1.8
2016-01-11T08:28:42.199Z,1.8
2016-01-11T08:29:42.138Z,1.7
2016-01-11T08:30:42.079Z,1.7
2016-01-11T08:31:42.019Z,1.6
2016-01-11T08:32:41.960Z,1.7
2016-01-11T08:33:41.899Z,1.7
2016-01-11T08:34:41.855Z,1.8
2016-01-11T08:35:41.795Z,1.8
2016-01-11T08:36:41.735Z,1.8
2016-01-11T08:37:41.676Z,1.9
2016-01-11T08:38:41.616Z,1.9
2016-01-11T08:39:41.571Z,1.9
2016-01-11T08:40:41.512Z,2
2016-01-11T08:41:41.452Z,2
2016-01-11T08:42:41.392Z,2.2
2016-01-11T08:43:41.332Z,2.2
2016-01-11T08:44:41.273Z,2.3
2016-01-11T08:45:41.213Z,2.3
2016-01-11T08:46:41.153Z,2.3
2016-01-11T08:47:41.109Z,2.3
2016-01-11T08:48:41.049Z,2.3
2016-01-11T08:49:40.989Z,2.3
2016-01-11T08:50:40.930Z,2.3
2016-01-11T08:51:40.885Z,2.3
2016-01-11T08:52:40.826Z,2.3
2016-01-11T08:53:40.767Z,2.2
2016-01-11T08:54:40.706Z,2.2
2016-01-11T08:55:40.646Z,2.2
2016-01-11T08:56:40.586Z,2.2
2016-01-11T08:57:40.527Z,2.1
2016-01-11T08:58:40.466Z,2.1
2016-01-11T08:59:40.422Z,2.2
2016-01-11T09:00:40.363Z,2.2
2016-01-11T09:01:40.303Z,2.2
2016-01-11T09:02:40.243Z,2.1
2016-01-11T09:03:40.183Z,2.1
2016-01-11T09:04:40.124Z,2.2
2016-01-11T09:05:40.080Z,2.2
2016-01-11T09:06:40.019Z,2.2
2016-01-11T09:07:39.960Z,2.2
2016-01-11T09:08:39.899Z,2.2
2016-01-11T09:09:39.840Z,2.2
2016-01-11T09:10:39.780Z,2.3
2016-01-11T09:11:39.721Z,2.5
2016-01-11T09:12:39.661Z,2.6
2016-01-11T09:13:39.618Z,2.6
2016-01-11T09:14:39.557Z,2.7
2016-01-11T09:15:39.498Z,2.8
2016-01-11T09:16:39.437Z,2.8
2016-01-11T09:17:39.393Z,2.8
2016-01-11T09:18:39.333Z,2.8
2016-01-11T09:19:39.273Z,2.8
2016-01-11T09:20:39.214Z,2.9
2016-01-11T09:21:39.154Z,3
2016-01-11T09:22:39.110Z,3
2016-01-11T09:23:39.050Z,3
2016-01-11T09:24:38.989Z,3
2016-01-11T09:25:38.930Z,3
2016-01-11T09:26:38.871Z,3.1
2016-01-11T09:27:38.826Z,3.1
2016-01-11T09:28:38.767Z,3
2016-01-11T09:29:38.707Z,3
2016-01-11T09:30:38.647Z,3
2016-01-11T09:31:38.603Z,3
2016-01-11T09:32:38.543Z,3
2016-01-11T09:33:38.484Z,3
2016-01-11T09:34:38.424Z,2.9
2016-01-11T09:35:38.361Z,2.8
2016-01-11T09:36:38.316Z,2.7
2016-01-11T09:37:38.257Z,2.7
2016-01-11T09:38:38.197Z,2.8
2016-01-11T09:39:38.153Z,2.7
2016-01-11T09:40:38.093Z,2.7
2016-01-11T09:41:38.033Z,2.7
2016-01-11T09:42:37.974Z,2.7
2016-01-11T09:43:37.913Z,2.7
2016-01-11T09:44:37.854Z,2.8
2016-01-11T09:45:37.810Z,2.9
2016-01-11T09:46:37.749Z,2.9
2016-01-11T09:47:37.690Z,2.9
2016-01-11T09:48:37.630Z,2.9
2016-01-11T09:49:37.586Z,2.9
2016-01-11T09:50:37.527Z,3
2016-01-11T09:51:37.467Z,3
2016-01-11T09:52:37.407Z,3.1
2016-01-11T09:53:37.347Z,3.2
2016-01-11T09:54:37.303Z,3.1
2016-01-11T09:55:37.243Z,3.2
2016-01-11T09:56:37.183Z,3.2
2016-01-11T09:57:37.123Z,3.2
2016-01-11T09:58:37.079Z,3.2
2016-01-11T09:59:37.020Z,3.2
2016-01-11T10:00:36.960Z,3.2
2016-01-11T10:01:36.900Z,3.2
2016-01-11T10:02:36.838Z,3.2
2016-01-11T10:03:36.793Z,3.2
2016-01-11T10:04:36.735Z,3.2
2016-01-11T10:05:36.674Z,3.1
2016-01-11T10:06:36.646Z,3.1
2016-01-11T10:07:36.570Z,3.1
2016-01-11T10:08:36.495Z,3.2
2016-01-11T10:09:36.450Z,3.2
2016-01-11T10:10:36.392Z,3.2
2016-01-11T10:11:36.347Z,3.3
2016-01-11T10:12:36.272Z,3.2
2016-01-11T10:13:36.227Z,3.3
2016-01-11T10:14:36.198Z,3.3
2016-01-11T10:15:36.108Z,3.2
2016-01-11T10:16:36.048Z,3.3
2016-01-11T10:17:35.989Z,3.3
2016-01-11T10:18:35.944Z,3.3
2016-01-11T10:19:35.900Z,3.3
2016-01-11T10:20:35.840Z,3.3
2016-01-11T10:21:35.764Z,3.4
2016-01-11T10:22:35.720Z,3.4
2016-01-11T10:23:35.661Z,3.4
2016-01-11T10:24:35.601Z,3.5
2016-01-11T10:25:35.541Z,3.6
2016-01-11T10:26:35.496Z,3.6
2016-01-11T10:27:35.437Z,3.6
2016-01-11T10:28:35.377Z,3.6
2016-01-11T10:29:35.318Z,3.6
2016-01-11T10:30:35.274Z,3.6
2016-01-11T10:31:35.213Z,3.6
2016-01-11T10:32:35.154Z,3.6
2016-01-11T10:33:35.093Z,3.6
2016-01-11T10:34:35.049Z,3.5
2016-01-11T10:35:34.990Z,3.5
2016-01-11T10:36:34.930Z,3.6
2016-01-11T10:37:34.885Z,3.6
2016-01-11T10:38:34.826Z,3.6
2016-01-11T10:39:34.766Z,3.6
2016-01-11T10:40:34.706Z,3.6
2016-01-11T10:41:34.646Z,3.7
2016-01-11T10:42:34.603Z,3.7
2016-01-11T10:43:34.542Z,3.7
2016-01-11T10:44:34.483Z,3.7
2016-01-11T10:45:34.423Z,3.7
2016-01-11T10:46:34.378Z,3.7
2016-01-11T10:47:34.319Z,3.7
2016-01-11T10:48:34.259Z,3.7
2016-01-11T10:49:34.215Z,3.7
2016-01-11T10:50:34.155Z,3.8
2016-01-11T10:51:34.096Z,3.8
2016-01-11T10:52:34.036Z,3.9
2016-01-11T10:53:33.991Z,3.8
2016-01-11T10:54:33.931Z,3.8
2016-01-11T10:55:33.872Z,3.8
2016-01-11T10:56:33.811Z,3.8
2016-01-11T10:57:33.752Z,3.8
2016-01-11T10:58:33.708Z,3.9
2016-01-11T10:59:33.648Z,3.9
2016-01-11T11:00:33.588Z,3.9
2016-01-11T11:01:33.530Z,3.9
2016-01-11T11:02:33.485Z,3.9
2016-01-11T11:03:33.424Z,3.9
2016-01-11T11:04:33.366Z,3.9
2016-01-11T11:05:33.321Z,4
2016-01-11T11:06:33.261Z,4
2016-01-11T11:07:33.202Z,3.9
2016-01-11T11:08:33.141Z,3.9
2016-01-11T11:09:33.097Z,3.9
2016-01-11T11:10:33.037Z,4
2016-01-11T11:11:32.978Z,4
2016-01-11T11:12:32.918Z,4.1
2016-01-11T11:13:32.858Z,4.1
2016-01-11T11:14:32.814Z,4.2
2016-01-11T11:15:32.754Z,4.1
2016-01-11T11:16:32.695Z,4.1
2016-01-11T11:17:32.651Z,4.1
2016-01-11T11:18:32.591Z,4.1
2016-01-11T11:19:32.531Z,4.1
2016-01-11T11:20:32.486Z,4.1
2016-01-11T11:21:32.426Z,4.1
2016-01-11T11:22:32.367Z,4.1
2016-01-11T11:23:32.323Z,4.1
2016-01-11T11:24:32.262Z,4.1
2016-01-11T11:25:32.203Z,4.2
2016-01-11T11:26:32.142Z,4.2
2016-01-11T11:27:32.083Z,4.1
2016-01-11T11:28:32.039Z,4.1
2016-01-11T11:29:31.980Z,4.1
2016-01-11T11:30:31.919Z,4.1
2016-01-11T11:31:31.876Z,4.1
2016-01-11T11:32:31.816Z,4.1
2016-01-11T11:33:31.771Z,4.1
2016-01-11T11:34:31.697Z,4.1
2016-01-11T11:35:31.652Z,4.1
2016-01-11T11:36:31.592Z,4.1
2016-01-11T11:37:31.548Z,4.1
2016-01-11T11:38:31.488Z,4.1
2016-01-11T11:39:31.444Z,4.1
2016-01-11T11:40:31.369Z,4.1
2016-01-11T11:41:31.325Z,4
2016-01-11T11:42:31.327Z,4.1
2016-01-11T11:43:31.205Z,4
2016-01-11T11:44:31.145Z,4
2016-01-11T11:45:31.101Z,4
2016-01-11T11:46:31.026Z,4
2016-01-11T11:47:30.996Z,4
2016-01-11T11:48:30.921Z,4
2016-01-11T11:49:30.862Z,4
2016-01-11T11:50:30.817Z,4
2016-01-11T11:51:30.757Z,4
2016-01-11T11:52:30.698Z,4
2016-01-11T11:53:30.637Z,4
2016-01-11T11:54:30.579Z,4
2016-01-11T11:55:30.534Z,4
2016-01-11T11:56:30.474Z,4
2016-01-11T11:57:30.415Z,4.1
2016-01-11T11:58:30.479Z,4.1
2016-01-11T11:59:30.311Z,4.1
2016-01-11T12:00:30.251Z,4.1
2016-01-11T12:01:30.191Z,4.1
2016-01-11T12:02:30.131Z,4.1
2016-01-11T12:03:30.072Z,4.1
2016-01-11T12:04:30.028Z,4.2
2016-01-11T12:05:29.967Z,4.2
2016-01-11T12:06:29.908Z,4.2
2016-01-11T12:07:29.848Z,4.2
2016-01-11T12:08:29.804Z,4.3
2016-01-11T12:09:29.744Z,4.3
2016-01-11T12:10:29.684Z,4.3
2016-01-11T12:11:29.639Z,4.3
2016-01-11T12:12:29.580Z,4.4
2016-01-11T12:13:29.519Z,4.5
2016-01-11T12:14:29.476Z,4.7
2016-01-11T12:15:29.417Z,4.9
2016-01-11T12:16:29.372Z,5
2016-01-11T12:17:29.313Z,5.1
2016-01-11T12:18:29.252Z,5.3
2016-01-11T12:19:29.193Z,5.4
2016-01-11T12:20:29.149Z,5.4
2016-01-11T12:21:29.088Z,5.5
2016-01-11T12:22:29.029Z,5.6
2016-01-11T12:23:28.984Z,5.6
2016-01-11T12:24:28.924Z,5.6
2016-01-11T12:25:28.865Z,5.7
2016-01-11T12:26:28.821Z,5.7
2016-01-11T12:27:28.762Z,5.7
2016-01-11T12:28:28.701Z,5.5
2016-01-11T12:29:28.657Z,5.4
2016-01-11T12:30:28.598Z,5.3
2016-01-11T12:31:28.553Z,5.2
2016-01-11T12:32:28.509Z,5.1
2016-01-11T12:33:28.434Z,5.1
2016-01-11T12:34:28.374Z,5.2
2016-01-11T12:35:28.329Z,5.2
2016-01-11T12:36:28.298Z,5.1
2016-01-11T12:37:28.223Z,5
2016-01-11T12:38:28.569Z,5
2016-01-11T12:39:28.119Z,4.9
2016-01-11T12:40:28.059Z,4.8
2016-01-11T12:41:28.014Z,4.9
2016-01-11T12:42:27.955Z,4.9
2016-01-11T12:43:27.895Z,4.7
2016-01-11T12:44:27.851Z,4.7
2016-01-11T12:45:27.792Z,4.8
2016-01-11T12:46:27.731Z,4.7
2016-01-11T12:47:27.688Z,4.6
2016-01-11T12:48:27.627Z,4.5
2016-01-11T12:49:27.568Z,4.4
2016-01-11T12:50:27.524Z,4.4
2016-01-11T12:51:27.463Z,4.4
2016-01-11T12:52:27.404Z,4.4
2016-01-11T12:53:27.334Z,4.4
2016-01-11T12:54:27.277Z,4.4
2016-01-11T12:55:27.206Z,4.3
2016-01-11T12:56:27.133Z,4.3
2016-01-11T12:57:27.061Z,4.3
2016-01-11T12:58:27.012Z,4.1
2016-01-11T12:59:26.947Z,4.1
2016-01-11T13:00:26.884Z,4.1
2016-01-11T13:01:26.818Z,4.2
2016-01-11T13:02:26.771Z,4.3
2016-01-11T13:03:26.693Z,4.4
2016-01-11T13:04:26.648Z,4.5
2016-01-11T13:05:26.587Z,4.5
2016-01-11T13:06:26.541Z,4.5
2016-01-11T13:07:26.479Z,4.5
2016-01-11T13:08:26.418Z,4.5
2016-01-11T13:09:26.358Z,4.4
2016-01-11T13:10:26.313Z,4.4
2016-01-11T13:11:26.252Z,4.3
2016-01-11T13:12:26.192Z,4.3
2016-01-11T13:13:26.148Z,4.3
2016-01-11T13:14:26.087Z,4.3
2016-01-11T13:15:26.028Z,4.3
2016-01-11T13:16:25.983Z,4.3
2016-01-11T13:17:25.956Z,4.3
2016-01-11T13:18:25.864Z,4.4
2016-01-11T13:19:25.820Z,4.4
2016-01-11T13:20:25.760Z,4.4
2016-01-11T13:21:25.701Z,4.4
2016-01-11T13:22:25.641Z,4.4
2016-01-11T13:23:25.597Z,4.4
2016-01-11T13:24:25.536Z,4.3
2016-01-11T13:25:25.478Z,4.2
2016-01-11T13:26:25.417Z,4.2
2016-01-11T13:27:25.373Z,4.2
2016-01-11T13:28:25.313Z,4.2
2016-01-11T13:29:25.253Z,4.2
2016-01-11T13:30:25.210Z,4.2
2016-01-11T13:31:25.150Z,4.1
2016-01-11T13:32:25.090Z,4.2
2016-01-11T13:33:25.045Z,4.2
2016-01-11T13:34:24.986Z,4.1
2016-01-11T13:35:24.926Z,4
2016-01-11T13:36:24.866Z,3.9
2016-01-11T13:37:24.821Z,3.8
2016-01-11T13:38:24.763Z,3.8
2016-01-11T13:39:24.702Z,3.8
2016-01-11T13:40:24.643Z,3.8
2016-01-11T13:41:24.614Z,3.7
2016-01-11T13:42:24.523Z,3.8
2016-01-11T13:43:24.494Z,3.8
2016-01-11T13:44:24.418Z,3.8
2016-01-11T13:45:24.359Z,3.7
2016-01-11T13:46:24.299Z,3.8
2016-01-11T13:47:24.256Z,3.7
2016-01-11T13:48:24.196Z,3.8
2016-01-11T13:49:24.135Z,3.8
2016-01-11T13:50:24.076Z,3.8